sensor_id;sensor_type;location;lat;lon;timestamp;P1;durP1;ratioP1;P2;durP2;ratioP2
47365;SDS011;33105;47.964;7.982;2022-10-31T00:02:50;9.85;;;1.90;;
47365;SDS011;33105;47.964;7.982;2022-10-31T00:06:08;4.60;;;1.48;;
47365;SDS011;33105;47.964;7.982;2022-10-31T00:09:23;6.30;;;1.75;;
47365;SDS011;33105;47.964;7.982;2022-10-31T00:12:25;9.82;;;1.60;;
47365;SDS011;33105;47.964;7.982;2022-10-31T00:15:27;4.20;;;1.67;;
47365;SDS011;33105;47.964;7.982;2022-10-31T00:18:29;7.35;;;2.03;;
47365;SDS011;33105;47.964;7.982;2022-10-31T00:21:31;5.63;;;1.80;;
47365;SDS011;33105;47.964;7.982;2022-10-31T00:24:33;18.10;;;2.75;;
47365;SDS011;33105;47.964;7.982;2022-10-31T00:27:34;7.97;;;1.92;;
47365;SDS011;33105;47.964;7.982;2022-10-31T00:30:36;8.25;;;1.55;;
47365;SDS011;33105;47.964;7.982;2022-10-31T00:33:38;11.77;;;2.25;;
47365;SDS011;33105;47.964;7.982;2022-10-31T00:37:00;9.52;;;2.03;;
47365;SDS011;33105;47.964;7.982;2022-10-31T00:40:01;5.70;;;1.77;;
47365;SDS011;33105;47.964;7.982;2022-10-31T00:43:49;9.05;;;2.10;;
47365;SDS011;33105;47.964;7.982;2022-10-31T00:46:51;7.93;;;2.22;;
47365;SDS011;33105;47.964;7.982;2022-10-31T00:49:56;7.32;;;1.70;;
47365;SDS011;33105;47.964;7.982;2022-10-31T00:53:07;8.95;;;2.00;;
47365;SDS011;33105;47.964;7.982;2022-10-31T00:56:09;7.50;;;2.10;;
47365;SDS011;33105;47.964;7.982;2022-10-31T00:59:11;7.70;;;1.80;;
47365;SDS011;33105;47.964;7.982;2022-10-31T01:02:16;7.35;;;1.98;;
47365;SDS011;33105;47.964;7.982;2022-10-31T01:08:46;8.60;;;1.92;;
47365;SDS011;33105;47.964;7.982;2022-10-31T01:12:03;6.72;;;1.80;;
47365;SDS011;33105;47.964;7.982;2022-10-31T01:15:07;6.97;;;2.03;;
47365;SDS011;33105;47.964;7.982;2022-10-31T01:18:09;10.00;;;2.00;;
47365;SDS011;33105;47.964;7.982;2022-10-31T01:21:20;10.93;;;2.28;;
47365;SDS011;33105;47.964;7.982;2022-10-31T01:24:26;5.88;;;1.55;;
47365;SDS011;33105;47.964;7.982;2022-10-31T01:27:29;7.80;;;1.90;;
47365;SDS011;33105;47.964;7.982;2022-10-31T01:30:32;10.35;;;2.15;;
47365;SDS011;33105;47.964;7.982;2022-10-31T01:33:37;6.75;;;2.20;;
47365;SDS011;33105;47.964;7.982;2022-10-31T01:36:41;10.68;;;1.85;;
47365;SDS011;33105;47.964;7.982;2022-10-31T01:39:49;6.95;;;1.80;;
47365;SDS011;33105;47.964;7.982;2022-10-31T01:42:50;7.40;;;3.00;;
47365;SDS011;33105;47.964;7.982;2022-10-31T01:45:52;5.20;;;1.42;;
47365;SDS011;33105;47.964;7.982;2022-10-31T01:49:04;9.38;;;2.50;;
47365;SDS011;33105;47.964;7.982;2022-10-31T01:55:34;7.13;;;1.67;;
47365;SDS011;33105;47.964;7.982;2022-10-31T01:58:40;5.30;;;1.88;;
47365;SDS011;33105;47.964;7.982;2022-10-31T02:01:45;6.38;;;2.10;;
47365;SDS011;33105;47.964;7.982;2022-10-31T02:04:51;6.13;;;2.05;;
47365;SDS011;33105;47.964;7.982;2022-10-31T02:08:40;10.20;;;1.67;;
47365;SDS011;33105;47.964;7.982;2022-10-31T02:12:01;10.02;;;1.80;;
47365;SDS011;33105;47.964;7.982;2022-10-31T02:15:07;6.18;;;1.60;;
47365;SDS011;33105;47.964;7.982;2022-10-31T02:18:10;9.88;;;2.13;;
47365;SDS011;33105;47.964;7.982;2022-10-31T02:21:14;9.52;;;2.30;;
47365;SDS011;33105;47.964;7.982;2022-10-31T02:36:16;6.50;;;1.90;;
47365;SDS011;33105;47.964;7.982;2022-10-31T02:39:25;7.18;;;2.28;;
47365;SDS011;33105;47.964;7.982;2022-10-31T02:42:56;3.45;;;1.40;;
47365;SDS011;33105;47.964;7.982;2022-10-31T02:46:08;6.05;;;1.50;;
47365;SDS011;33105;47.964;7.982;2022-10-31T02:49:54;7.68;;;1.75;;
47365;SDS011;33105;47.964;7.982;2022-10-31T02:53:15;10.48;;;1.88;;
47365;SDS011;33105;47.964;7.982;2022-10-31T02:56:18;3.83;;;1.80;;
47365;SDS011;33105;47.964;7.982;2022-10-31T03:03:14;6.47;;;2.00;;
47365;SDS011;33105;47.964;7.982;2022-10-31T03:20:27;7.22;;;2.10;;
47365;SDS011;33105;47.964;7.982;2022-10-31T03:23:50;5.75;;;2.38;;
47365;SDS011;33105;47.964;7.982;2022-10-31T03:26:54;9.05;;;2.20;;
47365;SDS011;33105;47.964;7.982;2022-10-31T03:30:01;6.43;;;1.75;;
47365;SDS011;33105;47.964;7.982;2022-10-31T03:33:09;7.38;;;1.85;;
47365;SDS011;33105;47.964;7.982;2022-10-31T03:36:16;5.43;;;2.10;;
47365;SDS011;33105;47.964;7.982;2022-10-31T03:39:19;8.25;;;2.20;;
47365;SDS011;33105;47.964;7.982;2022-10-31T03:42:24;10.18;;;2.10;;
47365;SDS011;33105;47.964;7.982;2022-10-31T03:45:27;6.38;;;1.75;;
47365;SDS011;33105;47.964;7.982;2022-10-31T03:48:31;7.95;;;2.00;;
47365;SDS011;33105;47.964;7.982;2022-10-31T03:54:43;9.10;;;2.38;;
47365;SDS011;33105;47.964;7.982;2022-10-31T03:57:57;7.65;;;2.17;;
47365;SDS011;33105;47.964;7.982;2022-10-31T04:01:03;9.35;;;1.75;;
47365;SDS011;33105;47.964;7.982;2022-10-31T04:04:09;8.23;;;1.95;;
47365;SDS011;33105;47.964;7.982;2022-10-31T04:07:12;5.07;;;1.70;;
47365;SDS011;33105;47.964;7.982;2022-10-31T04:10:15;9.50;;;2.28;;
47365;SDS011;33105;47.964;7.982;2022-10-31T04:13:21;11.80;;;2.40;;
47365;SDS011;33105;47.964;7.982;2022-10-31T04:16:44;7.22;;;2.10;;
47365;SDS011;33105;47.964;7.982;2022-10-31T04:19:47;5.97;;;1.92;;
47365;SDS011;33105;47.964;7.982;2022-10-31T04:22:49;7.43;;;2.00;;
47365;SDS011;33105;47.964;7.982;2022-10-31T04:25:51;5.28;;;1.98;;
47365;SDS011;33105;47.964;7.982;2022-10-31T04:28:53;5.72;;;1.70;;
47365;SDS011;33105;47.964;7.982;2022-10-31T04:32:39;5.70;;;1.75;;
47365;SDS011;33105;47.964;7.982;2022-10-31T04:35:27;11.38;;;1.63;;
47365;SDS011;33105;47.964;7.982;2022-10-31T04:38:29;8.43;;;2.10;;
47365;SDS011;33105;47.964;7.982;2022-10-31T04:41:30;11.60;;;2.25;;
47365;SDS011;33105;47.964;7.982;2022-10-31T04:44:42;9.80;;;1.65;;
47365;SDS011;33105;47.964;7.982;2022-10-31T04:47:43;5.78;;;1.88;;
47365;SDS011;33105;47.964;7.982;2022-10-31T04:50:44;4.68;;;1.77;;
47365;SDS011;33105;47.964;7.982;2022-10-31T04:53:49;7.70;;;2.15;;
47365;SDS011;33105;47.964;7.982;2022-10-31T04:57:02;6.63;;;1.90;;
47365;SDS011;33105;47.964;7.982;2022-10-31T05:00:05;7.43;;;1.77;;
47365;SDS011;33105;47.964;7.982;2022-10-31T05:03:08;5.38;;;1.98;;
47365;SDS011;33105;47.964;7.982;2022-10-31T05:06:09;8.45;;;2.05;;
47365;SDS011;33105;47.964;7.982;2022-10-31T05:09:14;6.90;;;1.90;;
47365;SDS011;33105;47.964;7.982;2022-10-31T05:12:17;6.20;;;2.10;;
47365;SDS011;33105;47.964;7.982;2022-10-31T05:15:51;10.57;;;2.42;;
47365;SDS011;33105;47.964;7.982;2022-10-31T05:18:56;7.95;;;1.90;;
47365;SDS011;33105;47.964;7.982;2022-10-31T05:22:00;10.07;;;2.22;;
47365;SDS011;33105;47.964;7.982;2022-10-31T05:25:01;8.15;;;1.75;;
47365;SDS011;33105;47.964;7.982;2022-10-31T05:28:03;6.88;;;2.20;;
47365;SDS011;33105;47.964;7.982;2022-10-31T05:31:04;6.35;;;1.73;;
47365;SDS011;33105;47.964;7.982;2022-10-31T05:34:06;9.32;;;1.92;;
47365;SDS011;33105;47.964;7.982;2022-10-31T05:37:19;8.50;;;2.25;;
47365;SDS011;33105;47.964;7.982;2022-10-31T05:40:21;12.48;;;2.50;;
47365;SDS011;33105;47.964;7.982;2022-10-31T05:43:23;8.10;;;2.17;;
47365;SDS011;33105;47.964;7.982;2022-10-31T05:46:24;9.55;;;2.00;;
47365;SDS011;33105;47.964;7.982;2022-10-31T05:49:44;7.88;;;2.20;;
47365;SDS011;33105;47.964;7.982;2022-10-31T05:56:10;7.50;;;2.30;;
47365;SDS011;33105;47.964;7.982;2022-10-31T05:59:11;13.55;;;2.05;;
47365;SDS011;33105;47.964;7.982;2022-10-31T06:02:14;13.23;;;2.38;;
47365;SDS011;33105;47.964;7.982;2022-10-31T06:05:47;11.32;;;2.15;;
47365;SDS011;33105;47.964;7.982;2022-10-31T06:08:48;6.18;;;1.70;;
47365;SDS011;33105;47.964;7.982;2022-10-31T06:11:54;7.07;;;1.80;;
47365;SDS011;33105;47.964;7.982;2022-10-31T06:14:58;6.57;;;2.20;;
47365;SDS011;33105;47.964;7.982;2022-10-31T06:18:01;8.95;;;2.55;;
47365;SDS011;33105;47.964;7.982;2022-10-31T06:21:08;12.13;;;1.80;;
47365;SDS011;33105;47.964;7.982;2022-10-31T06:24:10;5.30;;;1.80;;
47365;SDS011;33105;47.964;7.982;2022-10-31T06:27:34;11.43;;;2.05;;
47365;SDS011;33105;47.964;7.982;2022-10-31T06:30:43;9.45;;;2.50;;
47365;SDS011;33105;47.964;7.982;2022-10-31T06:33:45;10.20;;;2.67;;
47365;SDS011;33105;47.964;7.982;2022-10-31T06:36:47;11.57;;;2.97;;
47365;SDS011;33105;47.964;7.982;2022-10-31T06:39:48;6.90;;;2.03;;
47365;SDS011;33105;47.964;7.982;2022-10-31T06:43:00;7.20;;;1.92;;
47365;SDS011;33105;47.964;7.982;2022-10-31T06:46:03;7.10;;;2.38;;
47365;SDS011;33105;47.964;7.982;2022-10-31T06:49:14;5.88;;;2.08;;
47365;SDS011;33105;47.964;7.982;2022-10-31T06:52:21;10.07;;;2.60;;
47365;SDS011;33105;47.964;7.982;2022-10-31T06:55:25;5.07;;;2.17;;
47365;SDS011;33105;47.964;7.982;2022-10-31T06:58:27;6.10;;;1.73;;
47365;SDS011;33105;47.964;7.982;2022-10-31T07:01:33;7.00;;;2.13;;
47365;SDS011;33105;47.964;7.982;2022-10-31T07:04:37;9.15;;;1.75;;
47365;SDS011;33105;47.964;7.982;2022-10-31T07:07:43;11.10;;;2.17;;
47365;SDS011;33105;47.964;7.982;2022-10-31T07:10:50;8.35;;;1.90;;
47365;SDS011;33105;47.964;7.982;2022-10-31T07:13:57;8.60;;;1.70;;
47365;SDS011;33105;47.964;7.982;2022-10-31T07:16:58;6.32;;;2.20;;
47365;SDS011;33105;47.964;7.982;2022-10-31T07:20:07;13.27;;;2.10;;
47365;SDS011;33105;47.964;7.982;2022-10-31T07:23:09;13.20;;;2.55;;
47365;SDS011;33105;47.964;7.982;2022-10-31T07:26:11;12.30;;;2.42;;
47365;SDS011;33105;47.964;7.982;2022-10-31T07:33:10;5.97;;;2.05;;
47365;SDS011;33105;47.964;7.982;2022-10-31T07:36:41;6.95;;;1.75;;
47365;SDS011;33105;47.964;7.982;2022-10-31T07:39:51;10.50;;;2.00;;
47365;SDS011;33105;47.964;7.982;2022-10-31T07:46:52;7.72;;;1.98;;
47365;SDS011;33105;47.964;7.982;2022-10-31T07:50:20;8.05;;;2.05;;
47365;SDS011;33105;47.964;7.982;2022-10-31T07:54:01;6.47;;;2.38;;
47365;SDS011;33105;47.964;7.982;2022-10-31T07:57:06;11.95;;;2.00;;
47365;SDS011;33105;47.964;7.982;2022-10-31T08:00:08;8.50;;;2.00;;
47365;SDS011;33105;47.964;7.982;2022-10-31T08:03:20;8.63;;;1.98;;
47365;SDS011;33105;47.964;7.982;2022-10-31T08:06:24;6.25;;;1.88;;
47365;SDS011;33105;47.964;7.982;2022-10-31T08:09:38;8.93;;;2.33;;
47365;SDS011;33105;47.964;7.982;2022-10-31T08:13:01;6.00;;;1.98;;
47365;SDS011;33105;47.964;7.982;2022-10-31T08:16:37;10.20;;;2.00;;
47365;SDS011;33105;47.964;7.982;2022-10-31T08:19:40;12.57;;;2.05;;
47365;SDS011;33105;47.964;7.982;2022-10-31T08:26:00;7.35;;;2.33;;
47365;SDS011;33105;47.964;7.982;2022-10-31T08:29:01;6.35;;;1.92;;
47365;SDS011;33105;47.964;7.982;2022-10-31T08:32:06;5.13;;;1.58;;
47365;SDS011;33105;47.964;7.982;2022-10-31T08:35:54;6.18;;;2.10;;
47365;SDS011;33105;47.964;7.982;2022-10-31T08:39:24;5.05;;;1.90;;
47365;SDS011;33105;47.964;7.982;2022-10-31T08:42:29;5.22;;;1.88;;
47365;SDS011;33105;47.964;7.982;2022-10-31T08:46:23;4.38;;;1.73;;
47365;SDS011;33105;47.964;7.982;2022-10-31T08:49:14;7.43;;;1.70;;
47365;SDS011;33105;47.964;7.982;2022-10-31T08:52:17;5.75;;;1.88;;
47365;SDS011;33105;47.964;7.982;2022-10-31T08:55:21;9.30;;;2.20;;
47365;SDS011;33105;47.964;7.982;2022-10-31T08:58:45;6.00;;;1.80;;
47365;SDS011;33105;47.964;7.982;2022-10-31T09:01:47;8.88;;;2.53;;
47365;SDS011;33105;47.964;7.982;2022-10-31T09:04:49;6.65;;;2.00;;
47365;SDS011;33105;47.964;7.982;2022-10-31T09:07:55;9.73;;;2.28;;
47365;SDS011;33105;47.964;7.982;2022-10-31T09:10:57;14.10;;;1.90;;
47365;SDS011;33105;47.964;7.982;2022-10-31T09:14:19;6.00;;;2.80;;
47365;SDS011;33105;47.964;7.982;2022-10-31T09:17:50;11.52;;;2.92;;
47365;SDS011;33105;47.964;7.982;2022-10-31T09:21:10;9.82;;;2.50;;
47365;SDS011;33105;47.964;7.982;2022-10-31T09:24:12;8.02;;;2.20;;
47365;SDS011;33105;47.964;7.982;2022-10-31T09:27:15;6.38;;;1.98;;
47365;SDS011;33105;47.964;7.982;2022-10-31T09:30:20;7.63;;;2.22;;
47365;SDS011;33105;47.964;7.982;2022-10-31T09:33:24;6.32;;;2.53;;
47365;SDS011;33105;47.964;7.982;2022-10-31T09:36:44;6.47;;;2.75;;
47365;SDS011;33105;47.964;7.982;2022-10-31T09:39:54;10.10;;;2.17;;
47365;SDS011;33105;47.964;7.982;2022-10-31T09:50:18;7.47;;;1.83;;
47365;SDS011;33105;47.964;7.982;2022-10-31T09:53:24;7.85;;;2.40;;
47365;SDS011;33105;47.964;7.982;2022-10-31T09:56:32;9.77;;;2.00;;
47365;SDS011;33105;47.964;7.982;2022-10-31T09:59:36;10.10;;;2.85;;
47365;SDS011;33105;47.964;7.982;2022-10-31T10:02:56;8.65;;;2.63;;
47365;SDS011;33105;47.964;7.982;2022-10-31T10:06:23;7.43;;;2.45;;
47365;SDS011;33105;47.964;7.982;2022-10-31T10:09:48;7.22;;;3.15;;
47365;SDS011;33105;47.964;7.982;2022-10-31T10:23:16;7.20;;;2.70;;
47365;SDS011;33105;47.964;7.982;2022-10-31T10:26:34;7.10;;;2.53;;
47365;SDS011;33105;47.964;7.982;2022-10-31T10:29:58;10.70;;;3.10;;
47365;SDS011;33105;47.964;7.982;2022-10-31T10:33:07;6.20;;;2.50;;
47365;SDS011;33105;47.964;7.982;2022-10-31T10:36:13;7.68;;;2.28;;
47365;SDS011;33105;47.964;7.982;2022-10-31T10:39:33;8.32;;;2.72;;
47365;SDS011;33105;47.964;7.982;2022-10-31T10:42:39;9.73;;;3.10;;
47365;SDS011;33105;47.964;7.982;2022-10-31T10:46:06;10.45;;;2.90;;
47365;SDS011;33105;47.964;7.982;2022-10-31T10:56:15;5.10;;;2.42;;
47365;SDS011;33105;47.964;7.982;2022-10-31T10:59:42;7.95;;;3.30;;
47365;SDS011;33105;47.964;7.982;2022-10-31T11:02:43;8.02;;;3.10;;
47365;SDS011;33105;47.964;7.982;2022-10-31T11:05:54;14.23;;;4.40;;
47365;SDS011;33105;47.964;7.982;2022-10-31T11:09:08;10.23;;;4.05;;
47365;SDS011;33105;47.964;7.982;2022-10-31T11:12:16;8.95;;;4.53;;
47365;SDS011;33105;47.964;7.982;2022-10-31T11:15:22;13.27;;;5.00;;
47365;SDS011;33105;47.964;7.982;2022-10-31T11:18:27;16.98;;;4.47;;
47365;SDS011;33105;47.964;7.982;2022-10-31T11:21:31;9.25;;;4.13;;
47365;SDS011;33105;47.964;7.982;2022-10-31T11:24:39;15.18;;;4.68;;
47365;SDS011;33105;47.964;7.982;2022-10-31T11:27:42;7.15;;;3.60;;
47365;SDS011;33105;47.964;7.982;2022-10-31T11:30:45;11.38;;;4.82;;
47365;SDS011;33105;47.964;7.982;2022-10-31T11:34:30;9.38;;;3.60;;
47365;SDS011;33105;47.964;7.982;2022-10-31T11:37:34;10.02;;;3.20;;
47365;SDS011;33105;47.964;7.982;2022-10-31T11:40:54;7.85;;;3.20;;
47365;SDS011;33105;47.964;7.982;2022-10-31T11:44:02;12.38;;;3.90;;
47365;SDS011;33105;47.964;7.982;2022-10-31T11:47:05;6.80;;;3.00;;
47365;SDS011;33105;47.964;7.982;2022-10-31T11:50:17;11.07;;;3.03;;
47365;SDS011;33105;47.964;7.982;2022-10-31T11:53:26;11.70;;;3.08;;
47365;SDS011;33105;47.964;7.982;2022-10-31T11:56:39;6.88;;;3.05;;
47365;SDS011;33105;47.964;7.982;2022-10-31T11:59:50;7.05;;;2.83;;
47365;SDS011;33105;47.964;7.982;2022-10-31T12:06:15;9.57;;;2.70;;
47365;SDS011;33105;47.964;7.982;2022-10-31T12:09:25;6.82;;;2.60;;
47365;SDS011;33105;47.964;7.982;2022-10-31T12:12:41;10.55;;;2.60;;
47365;SDS011;33105;47.964;7.982;2022-10-31T12:15:56;8.88;;;2.60;;
47365;SDS011;33105;47.964;7.982;2022-10-31T12:35:46;8.48;;;3.38;;
47365;SDS011;33105;47.964;7.982;2022-10-31T12:45:56;7.63;;;2.45;;
47365;SDS011;33105;47.964;7.982;2022-10-31T12:49:03;13.77;;;2.90;;
47365;SDS011;33105;47.964;7.982;2022-10-31T12:52:19;18.30;;;4.07;;
47365;SDS011;33105;47.964;7.982;2022-10-31T13:08:40;11.30;;;3.20;;
47365;SDS011;33105;47.964;7.982;2022-10-31T13:12:01;8.55;;;2.67;;
47365;SDS011;33105;47.964;7.982;2022-10-31T13:15:13;8.30;;;2.75;;
47365;SDS011;33105;47.964;7.982;2022-10-31T13:22:04;12.75;;;2.25;;
47365;SDS011;33105;47.964;7.982;2022-10-31T13:25:16;7.27;;;2.40;;
47365;SDS011;33105;47.964;7.982;2022-10-31T13:28:33;7.15;;;2.53;;
47365;SDS011;33105;47.964;7.982;2022-10-31T13:31:40;5.13;;;2.05;;
47365;SDS011;33105;47.964;7.982;2022-10-31T13:34:50;5.65;;;2.33;;
47365;SDS011;33105;47.964;7.982;2022-10-31T13:38:09;5.63;;;2.30;;
47365;SDS011;33105;47.964;7.982;2022-10-31T13:44:53;6.82;;;2.30;;
47365;SDS011;33105;47.964;7.982;2022-10-31T13:47:55;12.68;;;3.05;;
47365;SDS011;33105;47.964;7.982;2022-10-31T13:50:59;11.82;;;2.60;;
47365;SDS011;33105;47.964;7.982;2022-10-31T13:54:06;15.35;;;3.40;;
47365;SDS011;33105;47.964;7.982;2022-10-31T13:57:24;9.65;;;3.70;;
47365;SDS011;33105;47.964;7.982;2022-10-31T14:00:42;8.63;;;4.03;;
47365;SDS011;33105;47.964;7.982;2022-10-31T14:03:45;11.98;;;4.22;;
47365;SDS011;33105;47.964;7.982;2022-10-31T14:07:06;17.00;;;4.55;;
47365;SDS011;33105;47.964;7.982;2022-10-31T14:13:37;10.38;;;3.88;;
47365;SDS011;33105;47.964;7.982;2022-10-31T14:16:44;6.88;;;3.50;;
47365;SDS011;33105;47.964;7.982;2022-10-31T14:19:59;12.68;;;4.13;;
47365;SDS011;33105;47.964;7.982;2022-10-31T14:26:30;10.68;;;4.40;;
47365;SDS011;33105;47.964;7.982;2022-10-31T14:29:34;12.52;;;4.13;;
47365;SDS011;33105;47.964;7.982;2022-10-31T14:32:35;13.18;;;4.10;;
47365;SDS011;33105;47.964;7.982;2022-10-31T14:35:51;5.68;;;3.13;;
47365;SDS011;33105;47.964;7.982;2022-10-31T14:49:41;11.25;;;4.63;;
47365;SDS011;33105;47.964;7.982;2022-10-31T14:52:46;13.27;;;4.30;;
47365;SDS011;33105;47.964;7.982;2022-10-31T14:55:52;9.65;;;3.70;;
47365;SDS011;33105;47.964;7.982;2022-10-31T14:58:56;14.98;;;3.80;;
47365;SDS011;33105;47.964;7.982;2022-10-31T15:02:06;10.38;;;3.85;;
47365;SDS011;33105;47.964;7.982;2022-10-31T15:05:13;13.73;;;3.78;;
47365;SDS011;33105;47.964;7.982;2022-10-31T15:11:36;11.43;;;3.47;;
47365;SDS011;33105;47.964;7.982;2022-10-31T15:14:38;8.32;;;3.78;;
47365;SDS011;33105;47.964;7.982;2022-10-31T15:17:43;10.13;;;3.90;;
47365;SDS011;33105;47.964;7.982;2022-10-31T15:20:45;17.65;;;9.05;;
47365;SDS011;33105;47.964;7.982;2022-10-31T15:23:47;17.75;;;9.40;;
47365;SDS011;33105;47.964;7.982;2022-10-31T15:26:51;13.85;;;6.40;;
47365;SDS011;33105;47.964;7.982;2022-10-31T15:30:02;12.60;;;5.00;;
47365;SDS011;33105;47.964;7.982;2022-10-31T15:33:24;11.27;;;4.60;;
47365;SDS011;33105;47.964;7.982;2022-10-31T15:36:27;11.75;;;5.10;;
47365;SDS011;33105;47.964;7.982;2022-10-31T15:39:29;15.57;;;5.43;;
47365;SDS011;33105;47.964;7.982;2022-10-31T15:42:32;11.85;;;5.90;;
47365;SDS011;33105;47.964;7.982;2022-10-31T15:50:55;11.80;;;5.32;;
47365;SDS011;33105;47.964;7.982;2022-10-31T15:53:58;16.42;;;6.63;;
47365;SDS011;33105;47.964;7.982;2022-10-31T15:57:10;20.27;;;7.00;;
47365;SDS011;33105;47.964;7.982;2022-10-31T16:00:59;17.08;;;6.47;;
47365;SDS011;33105;47.964;7.982;2022-10-31T16:03:41;14.90;;;5.68;;
47365;SDS011;33105;47.964;7.982;2022-10-31T16:06:42;11.27;;;5.15;;
47365;SDS011;33105;47.964;7.982;2022-10-31T16:25:42;15.63;;;6.63;;
47365;SDS011;33105;47.964;7.982;2022-10-31T16:28:51;12.57;;;6.82;;
47365;SDS011;33105;47.964;7.982;2022-10-31T16:31:55;16.20;;;6.93;;
47365;SDS011;33105;47.964;7.982;2022-10-31T16:39:06;20.48;;;7.47;;
47365;SDS011;33105;47.964;7.982;2022-10-31T16:42:08;12.25;;;6.78;;
47365;SDS011;33105;47.964;7.982;2022-10-31T16:45:21;15.70;;;6.68;;
47365;SDS011;33105;47.964;7.982;2022-10-31T16:48:35;19.70;;;7.90;;
47365;SDS011;33105;47.964;7.982;2022-10-31T16:51:42;15.57;;;6.97;;
47365;SDS011;33105;47.964;7.982;2022-10-31T16:54:46;13.85;;;7.32;;
47365;SDS011;33105;47.964;7.982;2022-10-31T17:02:16;20.75;;;7.13;;
47365;SDS011;33105;47.964;7.982;2022-10-31T17:05:20;15.23;;;6.88;;
47365;SDS011;33105;47.964;7.982;2022-10-31T17:08:52;14.38;;;6.68;;
47365;SDS011;33105;47.964;7.982;2022-10-31T17:12:05;16.63;;;6.60;;
47365;SDS011;33105;47.964;7.982;2022-10-31T17:15:54;12.32;;;6.40;;
47365;SDS011;33105;47.964;7.982;2022-10-31T17:19:19;17.90;;;6.22;;
47365;SDS011;33105;47.964;7.982;2022-10-31T17:22:21;12.02;;;5.55;;
47365;SDS011;33105;47.964;7.982;2022-10-31T17:25:43;16.00;;;7.40;;
47365;SDS011;33105;47.964;7.982;2022-10-31T17:29:12;18.77;;;7.00;;
47365;SDS011;33105;47.964;7.982;2022-10-31T17:32:42;21.63;;;7.78;;
47365;SDS011;33105;47.964;7.982;2022-10-31T17:36:05;15.27;;;6.75;;
47365;SDS011;33105;47.964;7.982;2022-10-31T17:39:13;21.80;;;7.28;;
47365;SDS011;33105;47.964;7.982;2022-10-31T17:42:45;12.52;;;6.65;;
47365;SDS011;33105;47.964;7.982;2022-10-31T17:46:06;21.60;;;7.72;;
47365;SDS011;33105;47.964;7.982;2022-10-31T17:49:09;12.95;;;6.68;;
47365;SDS011;33105;47.964;7.982;2022-10-31T17:52:31;19.52;;;8.35;;
47365;SDS011;33105;47.964;7.982;2022-10-31T17:56:03;16.55;;;7.55;;
47365;SDS011;33105;47.964;7.982;2022-10-31T17:59:42;13.35;;;6.82;;
47365;SDS011;33105;47.964;7.982;2022-10-31T18:02:52;17.33;;;6.63;;
47365;SDS011;33105;47.964;7.982;2022-10-31T18:06:21;11.85;;;5.80;;
47365;SDS011;33105;47.964;7.982;2022-10-31T18:09:38;14.25;;;6.57;;
47365;SDS011;33105;47.964;7.982;2022-10-31T18:12:40;18.23;;;7.57;;
47365;SDS011;33105;47.964;7.982;2022-10-31T18:15:58;22.80;;;8.77;;
47365;SDS011;33105;47.964;7.982;2022-10-31T18:19:04;16.05;;;7.47;;
47365;SDS011;33105;47.964;7.982;2022-10-31T18:22:11;18.73;;;7.68;;
47365;SDS011;33105;47.964;7.982;2022-10-31T18:25:18;14.25;;;7.38;;
47365;SDS011;33105;47.964;7.982;2022-10-31T18:28:20;16.10;;;5.93;;
47365;SDS011;33105;47.964;7.982;2022-10-31T18:31:21;17.27;;;7.20;;
47365;SDS011;33105;47.964;7.982;2022-10-31T18:34:32;13.55;;;6.13;;
47365;SDS011;33105;47.964;7.982;2022-10-31T18:37:33;13.90;;;4.97;;
47365;SDS011;33105;47.964;7.982;2022-10-31T18:40:42;14.68;;;5.78;;
47365;SDS011;33105;47.964;7.982;2022-10-31T18:43:49;13.90;;;6.43;;
47365;SDS011;33105;47.964;7.982;2022-10-31T18:46:56;13.18;;;5.80;;
47365;SDS011;33105;47.964;7.982;2022-10-31T18:50:19;13.40;;;5.68;;
47365;SDS011;33105;47.964;7.982;2022-10-31T18:53:21;13.93;;;5.68;;
47365;SDS011;33105;47.964;7.982;2022-10-31T18:56:23;11.63;;;5.07;;
47365;SDS011;33105;47.964;7.982;2022-10-31T18:59:25;12.25;;;4.93;;
47365;SDS011;33105;47.964;7.982;2022-10-31T19:02:26;17.20;;;5.07;;
47365;SDS011;33105;47.964;7.982;2022-10-31T19:05:27;19.85;;;5.68;;
47365;SDS011;33105;47.964;7.982;2022-10-31T19:08:32;13.35;;;4.85;;
47365;SDS011;33105;47.964;7.982;2022-10-31T19:11:34;18.80;;;5.35;;
47365;SDS011;33105;47.964;7.982;2022-10-31T19:14:45;9.68;;;4.93;;
47365;SDS011;33105;47.964;7.982;2022-10-31T19:17:49;10.18;;;4.35;;
47365;SDS011;33105;47.964;7.982;2022-10-31T19:20:50;18.75;;;4.68;;
47365;SDS011;33105;47.964;7.982;2022-10-31T19:23:52;14.30;;;3.60;;
47365;SDS011;33105;47.964;7.982;2022-10-31T19:26:56;17.00;;;4.25;;
47365;SDS011;33105;47.964;7.982;2022-10-31T19:30:03;9.95;;;4.03;;
47365;SDS011;33105;47.964;7.982;2022-10-31T19:33:09;9.95;;;4.47;;
47365;SDS011;33105;47.964;7.982;2022-10-31T19:36:19;10.27;;;4.50;;
47365;SDS011;33105;47.964;7.982;2022-10-31T19:39:32;14.07;;;4.40;;
47365;SDS011;33105;47.964;7.982;2022-10-31T19:42:44;8.52;;;4.55;;
47365;SDS011;33105;47.964;7.982;2022-10-31T19:45:56;13.10;;;4.63;;
47365;SDS011;33105;47.964;7.982;2022-10-31T19:49:15;10.00;;;4.50;;
47365;SDS011;33105;47.964;7.982;2022-10-31T19:52:38;10.82;;;4.60;;
47365;SDS011;33105;47.964;7.982;2022-10-31T19:55:39;15.45;;;5.38;;
47365;SDS011;33105;47.964;7.982;2022-10-31T19:58:41;15.60;;;4.80;;
47365;SDS011;33105;47.964;7.982;2022-10-31T20:01:45;10.00;;;3.60;;
47365;SDS011;33105;47.964;7.982;2022-10-31T20:04:46;13.48;;;4.05;;
47365;SDS011;33105;47.964;7.982;2022-10-31T20:07:54;10.88;;;5.07;;
47365;SDS011;33105;47.964;7.982;2022-10-31T20:11:05;12.82;;;4.45;;
47365;SDS011;33105;47.964;7.982;2022-10-31T20:14:09;10.82;;;4.13;;
47365;SDS011;33105;47.964;7.982;2022-10-31T20:17:24;8.40;;;4.18;;
47365;SDS011;33105;47.964;7.982;2022-10-31T20:20:25;10.80;;;3.97;;
47365;SDS011;33105;47.964;7.982;2022-10-31T20:23:27;15.25;;;4.43;;
47365;SDS011;33105;47.964;7.982;2022-10-31T20:26:35;7.90;;;3.97;;
47365;SDS011;33105;47.964;7.982;2022-10-31T20:29:55;16.63;;;4.60;;
47365;SDS011;33105;47.964;7.982;2022-10-31T20:32:56;11.10;;;3.90;;
47365;SDS011;33105;47.964;7.982;2022-10-31T20:36:05;9.23;;;3.80;;
47365;SDS011;33105;47.964;7.982;2022-10-31T20:39:22;11.75;;;4.53;;
47365;SDS011;33105;47.964;7.982;2022-10-31T20:42:24;11.98;;;3.40;;
47365;SDS011;33105;47.964;7.982;2022-10-31T20:45:25;10.63;;;4.20;;
47365;SDS011;33105;47.964;7.982;2022-10-31T20:48:27;15.88;;;5.20;;
47365;SDS011;33105;47.964;7.982;2022-10-31T20:51:33;14.55;;;6.78;;
47365;SDS011;33105;47.964;7.982;2022-10-31T20:54:34;14.45;;;5.45;;
47365;SDS011;33105;47.964;7.982;2022-10-31T20:57:50;12.18;;;4.10;;
47365;SDS011;33105;47.964;7.982;2022-10-31T21:04:46;9.93;;;3.75;;
47365;SDS011;33105;47.964;7.982;2022-10-31T21:07:47;10.93;;;3.47;;
47365;SDS011;33105;47.964;7.982;2022-10-31T21:10:51;11.32;;;3.30;;
47365;SDS011;33105;47.964;7.982;2022-10-31T21:14:42;9.18;;;3.33;;
47365;SDS011;33105;47.964;7.982;2022-10-31T21:18:09;10.23;;;3.47;;
47365;SDS011;33105;47.964;7.982;2022-10-31T21:21:12;10.68;;;3.33;;
47365;SDS011;33105;47.964;7.982;2022-10-31T21:24:27;8.07;;;3.00;;
47365;SDS011;33105;47.964;7.982;2022-10-31T21:27:29;8.63;;;2.90;;
47365;SDS011;33105;47.964;7.982;2022-10-31T21:30:40;10.48;;;3.22;;
47365;SDS011;33105;47.964;7.982;2022-10-31T21:33:44;8.90;;;3.85;;
47365;SDS011;33105;47.964;7.982;2022-10-31T21:36:52;9.32;;;3.10;;
47365;SDS011;33105;47.964;7.982;2022-10-31T21:40:19;9.27;;;3.28;;
47365;SDS011;33105;47.964;7.982;2022-10-31T21:43:21;15.30;;;2.88;;
47365;SDS011;33105;47.964;7.982;2022-10-31T21:46:47;9.43;;;3.58;;
47365;SDS011;33105;47.964;7.982;2022-10-31T21:49:59;6.75;;;2.92;;
47365;SDS011;33105;47.964;7.982;2022-10-31T21:53:12;11.52;;;3.50;;
47365;SDS011;33105;47.964;7.982;2022-10-31T21:56:49;11.07;;;3.40;;